Terminal Aerodrome Forecast
Issued by NWS

Home | Current Version | Previous Version | Text Only | Print | Product List | Glossary On
Versions: 1 2 3 4 5 6 7 8 9 10 11 12 13 14 15 16 17 18 19 20 21 22 23 24 25 26
000
FTUS41 KBOX 222336
TAFACK
TAF
KACK 222336Z 2300/2324 23005KT P6SM FEW006 BKN250
     FM230500 23006KT 5SM BR SCT007 BKN040
     FM230900 23007KT 3SM BR BKN007 BKN010
     FM231200 22008KT P6SM SCT008
     FM231300 22009KT P6SM SCT080
     FM231600 22012KT P6SM SCT025
     FM232100 21015KT P6SM BKN025=

USA.gov is the U.S. government's official web portal to all federal, state and local government web resources and services.